sensor_id;sensor_type;location;lat;lon;timestamp;P1;durP1;ratioP1;P2;durP2;ratioP2
13849;SDS011;6995;52.618;13.488;2023-02-28T05:13:42;29.30;;;27.23;;
13849;SDS011;6995;52.618;13.488;2023-02-28T05:16:08;29.47;;;27.50;;
13849;SDS011;6995;52.618;13.488;2023-02-28T05:18:37;29.53;;;27.47;;
13849;SDS011;6995;52.618;13.488;2023-02-28T05:21:12;29.73;;;27.73;;
13849;SDS011;6995;52.618;13.488;2023-02-28T05:23:54;30.83;;;28.87;;
13849;SDS011;6995;52.618;13.488;2023-02-28T05:26:22;27.20;;;25.37;;
13849;SDS011;6995;52.618;13.488;2023-02-28T05:28:48;30.70;;;28.70;;
13849;SDS011;6995;52.618;13.488;2023-02-28T05:31:19;32.93;;;30.57;;
13849;SDS011;6995;52.618;13.488;2023-02-28T05:33:47;32.53;;;30.20;;
13849;SDS011;6995;52.618;13.488;2023-02-28T05:36:33;32.07;;;29.77;;
13849;SDS011;6995;52.618;13.488;2023-02-28T05:39:05;32.57;;;30.37;;
13849;SDS011;6995;52.618;13.488;2023-02-28T05:41:33;34.60;;;32.33;;
13849;SDS011;6995;52.618;13.488;2023-02-28T05:43:58;35.27;;;32.80;;
13849;SDS011;6995;52.618;13.488;2023-02-28T05:46:25;35.97;;;33.33;;
13849;SDS011;6995;52.618;13.488;2023-02-28T05:48:54;39.00;;;36.03;;
13849;SDS011;6995;52.618;13.488;2023-02-28T05:51:20;41.33;;;38.13;;
13849;SDS011;6995;52.618;13.488;2023-02-28T05:53:46;34.87;;;32.23;;
13849;SDS011;6995;52.618;13.488;2023-02-28T05:56:13;42.67;;;39.63;;
13849;SDS011;6995;52.618;13.488;2023-02-28T05:58:38;35.10;;;32.43;;
13849;SDS011;6995;52.618;13.488;2023-02-28T06:03:58;37.50;;;34.90;;
13849;SDS011;6995;52.618;13.488;2023-02-28T06:06:27;34.17;;;31.67;;
13849;SDS011;6995;52.618;13.488;2023-02-28T06:08:54;32.57;;;30.27;;
13849;SDS011;6995;52.618;13.488;2023-02-28T06:11:21;31.23;;;29.07;;
13849;SDS011;6995;52.618;13.488;2023-02-28T06:13:55;31.37;;;29.27;;
13849;SDS011;6995;52.618;13.488;2023-02-28T06:16:30;31.63;;;29.63;;
13849;SDS011;6995;52.618;13.488;2023-02-28T06:19:02;33.23;;;30.93;;
13849;SDS011;6995;52.618;13.488;2023-02-28T06:21:31;34.50;;;32.07;;
13849;SDS011;6995;52.618;13.488;2023-02-28T06:24:09;31.87;;;29.67;;
13849;SDS011;6995;52.618;13.488;2023-02-28T06:26:41;32.33;;;29.97;;
13849;SDS011;6995;52.618;13.488;2023-02-28T06:29:28;35.93;;;33.67;;
13849;SDS011;6995;52.618;13.488;2023-02-28T06:31:53;32.70;;;30.37;;
13849;SDS011;6995;52.618;13.488;2023-02-28T06:34:21;36.47;;;34.07;;
13849;SDS011;6995;52.618;13.488;2023-02-28T06:36:53;33.07;;;30.70;;
13849;SDS011;6995;52.618;13.488;2023-02-28T06:39:19;34.67;;;32.23;;
13849;SDS011;6995;52.618;13.488;2023-02-28T06:41:45;40.10;;;37.37;;
13849;SDS011;6995;52.618;13.488;2023-02-28T06:44:13;35.77;;;33.17;;
13849;SDS011;6995;52.618;13.488;2023-02-28T06:46:50;35.47;;;32.67;;
13849;SDS011;6995;52.618;13.488;2023-02-28T06:49:16;35.00;;;32.60;;
13849;SDS011;6995;52.618;13.488;2023-02-28T06:51:45;36.13;;;33.90;;
13849;SDS011;6995;52.618;13.488;2023-02-28T06:54:11;35.90;;;33.30;;
13849;SDS011;6995;52.618;13.488;2023-02-28T06:56:37;37.07;;;34.43;;
13849;SDS011;6995;52.618;13.488;2023-02-28T06:59:06;39.30;;;36.77;;
13849;SDS011;6995;52.618;13.488;2023-02-28T07:01:32;40.60;;;38.00;;
13849;SDS011;6995;52.618;13.488;2023-02-28T07:03:58;35.53;;;33.20;;
13849;SDS011;6995;52.618;13.488;2023-02-28T07:06:25;37.93;;;35.60;;
13849;SDS011;6995;52.618;13.488;2023-02-28T07:08:51;39.80;;;37.07;;
13849;SDS011;6995;52.618;13.488;2023-02-28T07:11:18;33.97;;;31.17;;
13849;SDS011;6995;52.618;13.488;2023-02-28T07:13:57;29.43;;;27.20;;
13849;SDS011;6995;52.618;13.488;2023-02-28T07:16:23;33.60;;;31.07;;
13849;SDS011;6995;52.618;13.488;2023-02-28T07:18:52;35.20;;;32.60;;
13849;SDS011;6995;52.618;13.488;2023-02-28T07:21:21;30.23;;;27.77;;
13849;SDS011;6995;52.618;13.488;2023-02-28T07:23:47;35.47;;;32.60;;
13849;SDS011;6995;52.618;13.488;2023-02-28T07:26:14;33.27;;;30.77;;
13849;SDS011;6995;52.618;13.488;2023-02-28T07:28:42;36.13;;;33.50;;
13849;SDS011;6995;52.618;13.488;2023-02-28T07:31:10;37.70;;;34.77;;
13849;SDS011;6995;52.618;13.488;2023-02-28T07:33:41;34.63;;;31.70;;
13849;SDS011;6995;52.618;13.488;2023-02-28T07:36:09;33.93;;;31.47;;
13849;SDS011;6995;52.618;13.488;2023-02-28T07:38:40;34.17;;;31.27;;
13849;SDS011;6995;52.618;13.488;2023-02-28T07:41:15;30.33;;;28.13;;
13849;SDS011;6995;52.618;13.488;2023-02-28T07:43:52;32.63;;;30.27;;
13849;SDS011;6995;52.618;13.488;2023-02-28T07:46:20;32.33;;;29.53;;
13849;SDS011;6995;52.618;13.488;2023-02-28T07:48:51;32.83;;;30.53;;
13849;SDS011;6995;52.618;13.488;2023-02-28T08:01:47;32.30;;;29.90;;
13849;SDS011;6995;52.618;13.488;2023-02-28T08:08:08;32.77;;;29.87;;
13849;SDS011;6995;52.618;13.488;2023-02-28T08:10:39;30.33;;;28.17;;
13849;SDS011;6995;52.618;13.488;2023-02-28T08:13:29;48.90;;;46.10;;
13849;SDS011;6995;52.618;13.488;2023-02-28T08:16:13;38.07;;;35.53;;
13849;SDS011;6995;52.618;13.488;2023-02-28T08:18:53;27.10;;;25.33;;
13849;SDS011;6995;52.618;13.488;2023-02-28T08:21:27;26.57;;;24.90;;
13849;SDS011;6995;52.618;13.488;2023-02-28T08:26:55;25.60;;;23.77;;
13849;SDS011;6995;52.618;13.488;2023-02-28T08:29:27;27.90;;;26.00;;
13849;SDS011;6995;52.618;13.488;2023-02-28T08:31:55;27.73;;;26.03;;
13849;SDS011;6995;52.618;13.488;2023-02-28T08:34:40;29.07;;;27.20;;
13849;SDS011;6995;52.618;13.488;2023-02-28T08:37:29;24.53;;;23.13;;
13849;SDS011;6995;52.618;13.488;2023-02-28T08:40:00;27.07;;;25.40;;
13849;SDS011;6995;52.618;13.488;2023-02-28T08:42:29;21.50;;;20.30;;
13849;SDS011;6995;52.618;13.488;2023-02-28T08:44:55;21.83;;;20.63;;
13849;SDS011;6995;52.618;13.488;2023-02-28T08:47:21;22.93;;;21.83;;
13849;SDS011;6995;52.618;13.488;2023-02-28T08:49:46;22.40;;;21.30;;
13849;SDS011;6995;52.618;13.488;2023-02-28T08:52:12;24.40;;;23.20;;
13849;SDS011;6995;52.618;13.488;2023-02-28T08:54:44;24.23;;;22.43;;
13849;SDS011;6995;52.618;13.488;2023-02-28T08:57:10;23.87;;;22.57;;
13849;SDS011;6995;52.618;13.488;2023-02-28T08:59:38;25.43;;;24.13;;
13849;SDS011;6995;52.618;13.488;2023-02-28T09:02:04;23.70;;;22.33;;
13849;SDS011;6995;52.618;13.488;2023-02-28T09:04:33;24.30;;;23.13;;
13849;SDS011;6995;52.618;13.488;2023-02-28T09:06:59;22.13;;;21.03;;
13849;SDS011;6995;52.618;13.488;2023-02-28T09:09:27;27.13;;;25.53;;
13849;SDS011;6995;52.618;13.488;2023-02-28T09:11:55;29.13;;;27.20;;
13849;SDS011;6995;52.618;13.488;2023-02-28T09:14:29;25.07;;;23.67;;
13849;SDS011;6995;52.618;13.488;2023-02-28T09:16:55;23.23;;;22.00;;
13849;SDS011;6995;52.618;13.488;2023-02-28T09:19:23;22.33;;;21.17;;
13849;SDS011;6995;52.618;13.488;2023-02-28T09:21:51;25.57;;;24.27;;
13849;SDS011;6995;52.618;13.488;2023-02-28T09:24:17;23.60;;;22.27;;
13849;SDS011;6995;52.618;13.488;2023-02-28T09:26:46;26.53;;;24.77;;
13849;SDS011;6995;52.618;13.488;2023-02-28T09:29:12;22.80;;;21.53;;
13849;SDS011;6995;52.618;13.488;2023-02-28T09:31:44;27.90;;;26.03;;
13849;SDS011;6995;52.618;13.488;2023-02-28T09:34:34;25.37;;;23.87;;
13849;SDS011;6995;52.618;13.488;2023-02-28T18:00:34;33.87;;;31.53;;
13849;SDS011;6995;52.618;13.488;2023-02-28T18:03:07;27.13;;;25.27;;
13849;SDS011;6995;52.618;13.488;2023-02-28T18:05:48;31.03;;;28.83;;
13849;SDS011;6995;52.618;13.488;2023-02-28T18:11:49;30.97;;;28.90;;
13849;SDS011;6995;52.618;13.488;2023-02-28T18:14:32;28.47;;;26.53;;
13849;SDS011;6995;52.618;13.488;2023-02-28T18:24:09;30.60;;;28.70;;
13849;SDS011;6995;52.618;13.488;2023-02-28T23:08:05;73.00;;;53.07;;
13849;SDS011;6995;52.618;13.488;2023-02-28T23:11:03;68.63;;;53.73;;
13849;SDS011;6995;52.618;13.488;2023-02-28T23:13:47;64.17;;;51.90;;
13849;SDS011;6995;52.618;13.488;2023-02-28T23:16:24;65.70;;;51.17;;
13849;SDS011;6995;52.618;13.488;2023-02-28T23:19:03;63.87;;;50.13;;
13849;SDS011;6995;52.618;13.488;2023-02-28T23:21:44;48.60;;;43.47;;
13849;SDS011;6995;52.618;13.488;2023-02-28T23:24:15;47.63;;;42.73;;
13849;SDS011;6995;52.618;13.488;2023-02-28T23:26:45;45.00;;;40.63;;
13849;SDS011;6995;52.618;13.488;2023-02-28T23:29:13;51.53;;;46.70;;
13849;SDS011;6995;52.618;13.488;2023-02-28T23:31:43;47.97;;;42.13;;
13849;SDS011;6995;52.618;13.488;2023-02-28T23:34:12;48.67;;;43.27;;
13849;SDS011;6995;52.618;13.488;2023-02-28T23:36:39;52.83;;;47.47;;
13849;SDS011;6995;52.618;13.488;2023-02-28T23:39:16;51.23;;;46.30;;
13849;SDS011;6995;52.618;13.488;2023-02-28T23:41:42;48.10;;;42.80;;
13849;SDS011;6995;52.618;13.488;2023-02-28T23:44:08;50.43;;;45.00;;
13849;SDS011;6995;52.618;13.488;2023-02-28T23:46:40;48.33;;;41.97;;
13849;SDS011;6995;52.618;13.488;2023-02-28T23:49:07;49.37;;;44.10;;
13849;SDS011;6995;52.618;13.488;2023-02-28T23:51:33;45.80;;;40.93;;
13849;SDS011;6995;52.618;13.488;2023-02-28T23:54:01;52.50;;;46.87;;
13849;SDS011;6995;52.618;13.488;2023-02-28T23:56:28;48.00;;;43.13;;
13849;SDS011;6995;52.618;13.488;2023-02-28T23:58:57;50.97;;;45.63;;
